Time;durP1;ratioP1;P1;durP2;ratioP2;P2;SDS_P1;SDS_P2;PMS_P1;PMS_P2;Temp;Humidity;BMP_temperature;BMP_pressure;BME280_temperature;BME280_humidity;BME280_pressure;Samples;Min_cycle;Max_cycle;Signal;HPM_P1;HPM_P2
2022/03/31 00:00:47;;;;;;;61.60;21.38;;;10.80;71.90;;;6.81;89.78;93698.56;5034081;28;20103;-55
2022/03/31 00:03:17;;;;;;;56.03;22.17;;;10.80;71.90;;;6.79;89.64;93699.91;5033422;28;20037;-54
2022/03/31 00:05:44;;;;;;;67.90;22.33;;;10.70;72.00;;;6.78;89.65;93699.13;5034059;28;20439;-54
2022/03/31 00:08:17;;;;;;;45.65;20.13;;;10.70;72.00;;;6.77;89.75;93697.56;5049298;28;20054;-54
2022/03/31 00:10:54;;;;;;;53.33;20.42;;;10.70;72.10;;;6.72;89.64;93690.47;5034031;28;20029;-53
2022/03/31 00:13:29;;;;;;;56.03;21.75;;;10.70;72.10;;;6.71;89.63;93688.13;5048810;28;20068;-55
2022/03/31 00:15:57;;;;;;;50.08;20.00;;;10.60;72.20;;;6.70;89.67;93691.81;5033885;28;20029;-52
2022/03/31 00:18:31;;;;;;;70.95;21.95;;;10.60;72.20;;;6.66;89.40;93686.31;5034687;28;20033;-51
2022/03/31 00:20:57;;;;;;;52.58;19.10;;;10.70;72.30;;;6.64;89.70;93691.13;5048821;28;20021;-51
2022/03/31 00:23:23;;;;;;;56.15;19.48;;;10.60;72.10;;;6.62;89.76;93690.59;5049207;28;20399;-51
2022/03/31 00:25:57;;;;;;;55.10;19.27;;;10.60;72.20;;;6.60;89.81;93684.81;5033654;28;20033;-54
2022/03/31 00:28:26;;;;;;;49.53;17.98;;;10.60;72.30;;;6.59;89.69;93682.47;5032037;28;20025;-53
2022/03/31 00:30:52;;;;;;;45.05;17.58;;;10.50;72.20;;;6.55;90.01;93673.50;5046522;28;20422;-55
2022/03/31 00:33:18;;;;;;;55.10;17.42;;;10.50;72.20;;;6.53;90.04;93676.44;5052193;28;20036;-56
2022/03/31 00:35:44;;;;;;;64.10;18.83;;;10.50;72.20;;;6.48;90.14;93660.63;5053303;28;20100;-55
2022/03/31 00:38:11;;;;;;;57.42;18.42;;;10.50;72.30;;;6.48;89.69;93664.06;5047402;28;20051;-56
2022/03/31 00:40:40;;;;;;;53.25;20.02;;;10.40;72.30;;;6.48;89.85;93668.56;5048591;28;20033;-55
2022/03/31 00:43:07;;;;;;;55.38;18.52;;;10.40;72.50;;;6.44;90.05;93655.13;5033349;28;20033;-57
2022/03/31 00:45:46;;;;;;;64.45;18.73;;;10.40;72.40;;;6.44;90.13;93654.34;5015865;28;20025;-56
2022/03/31 00:48:15;;;;;;;75.28;18.98;;;10.40;72.50;;;6.42;89.94;93651.19;5017374;28;20029;-54
2022/03/31 00:50:43;;;;;;;56.80;18.83;;;10.30;72.50;;;6.39;89.76;93649.94;5033167;28;20089;-56
2022/03/31 00:53:12;;;;;;;56.80;20.30;;;10.40;72.50;;;6.37;90.38;93652.06;5024295;28;20091;-55
2022/03/31 00:55:48;;;;;;;66.75;21.05;;;10.40;72.70;;;6.40;90.50;93648.84;5033211;28;20036;-55
2022/03/31 00:58:16;;;;;;;67.57;20.48;;;10.40;72.70;;;6.42;90.25;93630.81;5041652;28;20032;-56
2022/03/31 01:00:48;;;;;;;56.38;19.95;;;10.30;72.60;;;6.41;90.18;93631.13;5038037;28;20095;-55
2022/03/31 01:03:17;;;;;;;55.45;20.95;;;10.40;72.70;;;6.37;90.13;93630.13;5014152;28;20030;-55
2022/03/31 01:05:46;;;;;;;60.53;20.33;;;10.30;72.60;;;6.35;90.12;93625.09;5014411;28;20501;-56
2022/03/31 01:08:21;;;;;;;51.10;20.10;;;10.30;72.50;;;6.31;89.91;93618.03;5031962;28;20479;-55
2022/03/31 01:10:52;;;;;;;48.97;19.60;;;10.30;72.70;;;6.29;90.23;93612.25;5037578;28;20047;-57
2022/03/31 01:13:18;;;;;;;52.67;19.85;;;10.20;72.70;;;6.24;90.21;93613.88;5031492;28;20022;-56
2022/03/31 01:15:47;;;;;;;90.85;21.60;;;10.20;72.60;;;6.26;89.94;93611.72;5014161;28;20040;-52
2022/03/31 01:18:16;;;;;;;60.50;19.23;;;10.20;72.70;;;6.25;89.96;93614.66;5014088;28;20087;-54
2022/03/31 01:20:54;;;;;;;62.40;18.83;;;10.20;72.80;;;6.22;90.17;93616.03;5031804;28;20060;-50
2022/03/31 01:23:23;;;;;;;48.78;18.40;;;10.20;72.90;;;6.19;90.36;93605.22;5031292;28;20041;-53
2022/03/31 01:25:48;;;;;;;62.55;20.05;;;10.10;72.80;;;6.17;90.31;93602.06;5031823;28;20044;-50
2022/03/31 01:28:14;;;;;;;61.10;20.10;;;10.10;72.80;;;6.16;90.69;93595.22;5041144;28;20033;-55
2022/03/31 01:30:53;;;;;;;78.90;21.15;;;10.10;72.90;;;6.16;90.43;93596.00;5031723;28;20049;-52
2022/03/31 01:33:19;;;;;;;66.40;20.50;;;10.10;73.00;;;6.14;90.26;93598.16;5031255;28;20522;-55
2022/03/31 01:35:47;;;;;;;53.50;19.00;;;10.10;72.80;;;6.11;90.13;93595.28;5031710;28;20030;-55
2022/03/31 01:38:18;;;;;;;60.30;20.05;;;10.00;72.80;;;6.06;90.79;93590.06;5014013;28;20053;-55
2022/03/31 01:40:47;;;;;;;91.32;20.75;;;10.00;72.90;;;6.06;90.21;93587.44;5031637;28;20025;-51
2022/03/31 01:43:16;;;;;;;58.75;18.25;;;9.90;72.90;;;6.02;89.88;93589.84;5030934;28;20026;-56
2022/03/31 01:45:42;;;;;;;47.38;18.52;;;9.90;72.90;;;5.97;89.83;93587.28;5031612;28;20042;-55
2022/03/31 01:48:11;;;;;;;55.88;18.83;;;9.90;72.90;;;5.93;89.80;93581.78;5031389;28;20079;-55
2022/03/31 01:50:36;;;;;;;57.00;19.05;;;9.80;72.90;;;5.90;90.18;93577.03;5031341;28;20033;-56
2022/03/31 01:53:09;;;;;;;64.88;20.35;;;9.80;73.00;;;5.89;89.91;93582.56;5014551;28;20090;-53
2022/03/31 01:55:36;;;;;;;65.03;17.33;;;9.80;73.10;;;5.85;90.14;93578.94;5051366;28;20108;-55
2022/03/31 01:58:04;;;;;;;58.95;18.70;;;9.70;73.00;;;5.78;90.57;93569.50;5051406;28;20032;-51
2022/03/31 02:00:39;;;;;;;61.03;20.15;;;9.70;73.20;;;5.73;90.86;93568.75;5055239;28;20028;-53
2022/03/31 02:03:05;;;;;;;61.15;19.40;;;9.70;73.30;;;5.80;90.83;93571.88;5019499;28;20060;-56
2022/03/31 02:05:31;;;;;;;59.45;19.08;;;9.70;73.20;;;5.82;90.58;93572.34;5031468;28;20065;-56
2022/03/31 02:08:02;;;;;;;64.10;20.58;;;9.70;73.30;;;5.80;90.62;93563.94;5031221;28;20029;-56
2022/03/31 02:10:30;;;;;;;67.97;21.23;;;9.70;73.30;;;5.76;91.30;93560.28;5031321;28;20034;-55
2022/03/31 02:12:57;;;;;;;61.20;21.17;;;9.80;73.40;;;5.80;91.06;93564.72;5030580;28;20025;-55
2022/03/31 02:15:23;;;;;;;55.42;18.80;;;9.70;73.30;;;5.80;90.99;93563.94;5013661;28;20476;-56
2022/03/31 02:17:49;;;;;;;52.78;18.58;;;9.70;73.30;;;5.79;90.90;93557.84;5013493;28;20026;-53
2022/03/31 02:20:24;;;;;;;61.38;19.38;;;9.70;73.30;;;5.78;90.54;93560.78;5031299;28;20025;-54
2022/03/31 02:22:50;;;;;;;57.30;19.75;;;9.70;73.40;;;5.73;90.66;93556.34;5013439;28;20392;-54
2022/03/31 02:25:16;;;;;;;56.50;19.88;;;9.70;73.30;;;5.73;90.91;93552.91;5031208;28;20029;-55
2022/03/31 02:27:52;;;;;;;68.60;20.40;;;9.70;73.40;;;5.75;90.95;93548.16;5036556;28;20029;-51
2022/03/31 02:30:24;;;;;;;73.05;20.98;;;9.70;73.50;;;5.75;90.74;93545.50;5038085;28;20411;-52
2022/03/31 02:32:50;;;;;;;69.45;20.23;;;9.80;73.50;;;5.80;90.77;93554.16;5032914;28;20068;-51
2022/03/31 02:35:17;;;;;;;77.50;21.50;;;9.80;73.40;;;5.82;90.85;93543.28;5044751;28;20483;-54
2022/03/31 02:37:43;;;;;;;81.93;21.13;;;9.80;73.30;;;5.84;90.62;93541.16;5033102;28;20032;-56
2022/03/31 02:40:09;;;;;;;68.18;21.58;;;9.90;73.40;;;5.87;90.83;93543.25;5066287;28;20151;-57
2022/03/31 02:42:35;;;;;;;65.82;21.73;;;9.90;73.80;;;5.88;90.86;93542.16;5049342;28;20029;-54
2022/03/31 02:45:06;;;;;;;79.20;21.95;;;9.90;73.30;;;5.91;90.90;93532.88;5033209;28;20033;-55
2022/03/31 02:47:35;;;;;;;73.85;22.42;;;10.00;73.40;;;5.95;91.23;93529.41;5066383;28;20491;-53
2022/03/31 02:50:04;;;;;;;71.15;22.23;;;10.00;73.30;;;5.96;91.21;93523.06;5050783;28;20060;-53
2022/03/31 02:55:28;;;;;;;76.00;23.10;;;10.10;73.40;;;6.00;91.00;93526.69;5052347;28;20486;-54
2022/03/31 02:58:02;;;;;;;64.90;20.98;;;10.00;73.30;;;5.96;90.83;93522.28;5046569;28;20400;-55
2022/03/31 03:00:32;;;;;;;62.95;20.77;;;10.00;73.20;;;5.97;90.88;93524.63;5016928;28;20373;-56
2022/03/31 03:02:59;;;;;;;79.82;21.73;;;10.00;73.30;;;5.97;90.92;93519.34;5033940;28;20069;-55
2022/03/31 03:05:25;;;;;;;66.18;20.15;;;10.00;73.30;;;5.99;90.73;93514.56;5034228;28;20040;-56
2022/03/31 03:08:04;;;;;;;65.18;21.70;;;10.00;73.30;;;5.96;90.71;93517.00;5032861;28;20033;-55
2022/03/31 03:10:30;;;;;;;65.05;21.00;;;10.00;73.40;;;5.96;90.65;93514.34;5016643;28;20029;-55
2022/03/31 03:13:05;;;;;;;86.47;22.15;;;10.00;73.30;;;5.96;90.46;93519.63;5033722;28;20041;-53
2022/03/31 03:15:36;;;;;;;63.55;20.70;;;10.00;73.40;;;5.92;90.23;93518.59;5032958;28;20032;-56
2022/03/31 03:18:08;;;;;;;81.72;20.88;;;9.90;73.20;;;5.91;90.60;93511.75;5000076;28;20426;-57
2022/03/31 03:20:34;;;;;;;74.43;22.67;;;9.90;73.30;;;5.90;90.34;93516.25;5016486;28;20502;-54
2022/03/31 03:23:09;;;;;;;128.20;24.02;;;9.90;73.20;;;5.90;90.42;93518.09;5033838;28;20067;-56
2022/03/31 03:25:35;;;;;;;74.57;21.92;;;9.90;73.40;;;5.90;90.65;93513.59;5033837;28;20113;-56
2022/03/31 03:28:04;;;;;;;97.57;23.95;;;9.90;73.30;;;5.85;90.72;93497.81;5016316;28;20155;-51
2022/03/31 03:30:30;;;;;;;91.38;23.83;;;10.00;73.40;;;5.95;90.97;93512.75;5033564;28;20080;-52
2022/03/31 03:32:59;;;;;;;88.10;23.27;;;10.00;73.30;;;5.98;90.82;93510.34;5033261;28;20068;-53
2022/03/31 03:35:28;;;;;;;80.63;24.33;;;10.10;73.40;;;6.00;91.10;93504.78;5015971;28;20128;-54
2022/03/31 03:38:09;;;;;;;112.18;24.95;;;10.10;73.40;;;6.02;90.91;93498.13;5033677;28;20029;-56
2022/03/31 03:40:37;;;;;;;87.88;24.38;;;10.10;73.40;;;6.04;90.98;93495.19;5033861;28;20029;-55
2022/03/31 03:43:13;;;;;;;86.55;24.27;;;10.20;73.30;;;6.10;91.06;93501.19;5015640;28;20021;-53
2022/03/31 03:45:48;;;;;;;98.75;24.98;;;10.20;73.40;;;6.14;91.08;93504.84;5015965;28;20034;-52
2022/03/31 03:48:22;;;;;;;100.32;26.17;;;10.20;73.40;;;6.14;90.82;93504.84;5033441;28;20603;-51
2022/03/31 03:50:48;;;;;;;100.80;25.90;;;10.30;73.30;;;6.18;91.09;93506.63;5033462;28;20079;-54
2022/03/31 03:53:17;;;;;;;95.55;25.90;;;10.30;73.30;;;6.19;90.93;93505.53;5032887;28;20025;-53
2022/03/31 03:55:45;;;;;;;87.03;25.13;;;10.30;73.30;;;6.24;90.83;93505.47;5047374;28;20391;-56
2022/03/31 03:58:11;;;;;;;115.07;26.63;;;10.30;73.20;;;6.24;90.86;93499.41;5053239;28;20391;-55
2022/03/31 04:00:37;;;;;;;98.63;25.25;;;10.40;73.30;;;6.28;90.67;93500.41;5053294;28;20028;-56
2022/03/31 04:03:03;;;;;;;76.13;25.15;;;10.40;73.30;;;6.30;90.81;93500.91;5051534;28;20021;-51
2022/03/31 04:05:29;;;;;;;78.95;24.10;;;10.40;73.20;;;6.33;90.94;93497.69;5053228;28;20029;-50
2022/03/31 04:07:54;;;;;;;119.50;25.52;;;10.50;73.20;;;6.33;90.95;93500.34;5052716;28;20037;-51
2022/03/31 04:10:20;;;;;;;71.32;23.38;;;10.50;73.30;;;6.35;91.05;93500.81;5051738;28;20036;-54
2022/03/31 04:12:54;;;;;;;80.00;22.48;;;10.50;73.20;;;6.37;90.94;93501.31;5067883;28;20522;-55
2022/03/31 04:15:27;;;;;;;82.30;23.15;;;10.50;73.20;;;6.36;90.70;93498.94;5052967;28;20029;-53
2022/03/31 04:18:02;;;;;;;94.00;23.65;;;10.50;73.20;;;6.37;90.74;93488.09;5052771;28;20081;-53
2022/03/31 04:20:31;;;;;;;82.22;23.70;;;10.50;73.10;;;6.37;90.55;93488.09;5052738;28;20029;-54
2022/03/31 04:23:01;;;;;;;85.45;23.90;;;10.50;73.10;;;6.38;90.85;93488.88;5034532;28;20067;-51
2022/03/31 04:25:30;;;;;;;92.70;23.23;;;10.50;73.10;;;6.39;90.74;93495.72;5034704;28;20575;-56
2022/03/31 04:28:04;;;;;;;80.18;22.98;;;10.50;73.10;;;6.37;90.72;93488.09;5034947;28;20070;-52
2022/03/31 04:30:30;;;;;;;94.50;24.52;;;10.50;73.20;;;6.37;90.54;93493.38;5051201;28;20041;-53
2022/03/31 04:32:56;;;;;;;87.05;22.27;;;10.50;73.10;;;6.37;90.48;93485.44;5051987;28;20025;-52
2022/03/31 04:35:21;;;;;;;70.28;22.95;;;10.50;73.10;;;6.36;90.51;93485.72;5052529;28;20032;-55
2022/03/31 04:37:50;;;;;;;74.80;23.45;;;10.50;73.20;;;6.35;90.67;93478.88;5052409;28;20029;-53
2022/03/31 04:40:16;;;;;;;72.78;22.45;;;10.50;73.20;;;6.35;90.70;93476.22;5067858;28;20036;-56
2022/03/31 04:42:42;;;;;;;77.50;23.02;;;10.40;73.20;;;6.33;90.46;93476.53;5052010;28;20037;-54
2022/03/31 04:45:09;;;;;;;76.20;21.83;;;10.40;73.20;;;6.31;90.65;93475.25;5067699;28;20033;-54
2022/03/31 04:47:34;;;;;;;84.38;22.63;;;10.40;73.30;;;6.36;90.67;93488.38;5051005;28;20104;-54
2022/03/31 04:50:04;;;;;;;89.50;23.00;;;10.40;73.20;;;6.31;90.49;93481.31;5034465;28;20174;-56
2022/03/31 04:52:35;;;;;;;72.72;22.38;;;10.40;73.30;;;6.29;90.61;93480.81;5067311;28;20097;-55
2022/03/31 04:55:05;;;;;;;76.43;22.63;;;10.40;73.30;;;6.31;90.59;93491.13;5067710;28;20021;-56
2022/03/31 04:57:33;;;;;;;79.70;22.00;;;10.40;73.30;;;6.31;90.70;93491.13;5052188;28;20021;-56
2022/03/31 04:59:59;;;;;;;74.47;22.58;;;10.40;73.30;;;6.31;90.47;93481.31;5052011;28;20091;-56
2022/03/31 05:02:25;;;;;;;78.78;23.42;;;10.40;73.30;;;6.31;90.65;93491.13;5051578;28;20036;-52
2022/03/31 05:04:54;;;;;;;88.03;24.00;;;10.40;73.30;;;6.26;90.68;93479.53;5051890;28;20039;-51
2022/03/31 05:07:19;;;;;;;85.43;23.98;;;10.40;73.30;;;6.29;90.83;93475.53;5050576;28;20482;-53
2022/03/31 05:09:48;;;;;;;73.63;22.77;;;10.40;73.30;;;6.30;90.72;93474.47;5052110;28;20103;-53
2022/03/31 05:12:16;;;;;;;104.35;23.20;;;10.40;73.40;;;6.30;90.29;93476.31;5051574;28;20428;-53
2022/03/31 05:14:42;;;;;;;79.78;22.55;;;10.40;73.30;;;6.28;90.32;93476.59;5051865;28;20056;-54
2022/03/31 05:17:13;;;;;;;109.97;23.85;;;10.40;73.30;;;6.25;90.34;93472.66;5038368;28;20506;-54
2022/03/31 05:19:39;;;;;;;81.35;23.63;;;10.40;73.30;;;6.24;90.32;93472.97;5031384;28;20037;-55
2022/03/31 05:22:05;;;;;;;87.88;24.02;;;10.40;73.30;;;6.24;90.46;93484.34;5038340;28;20096;-57
2022/03/31 05:24:31;;;;;;;97.95;23.70;;;10.40;73.30;;;6.23;90.39;93479.31;5019852;28;20029;-56
2022/03/31 05:26:57;;;;;;;98.90;24.42;;;10.40;73.30;;;6.23;90.57;93481.97;5030064;28;20029;-57
2022/03/31 05:29:23;;;;;;;90.68;24.17;;;10.40;73.30;;;6.25;90.47;93485.13;5051295;28;20020;-54
2022/03/31 05:31:50;;;;;;;106.03;23.75;;;10.40;73.30;;;6.25;90.60;93477.97;5030895;28;20041;-53
2022/03/31 05:34:16;;;;;;;86.18;22.60;;;10.40;73.30;;;6.28;90.74;93476.59;5050333;28;20086;-53
2022/03/31 05:36:42;;;;;;;86.15;22.00;;;10.40;73.30;;;6.30;90.67;93476.31;5051605;28;20044;-56
2022/03/31 05:39:08;;;;;;;74.60;21.45;;;10.40;73.30;;;6.31;90.51;93469.97;5051461;28;20025;-56
2022/03/31 05:41:34;;;;;;;76.15;21.67;;;10.50;73.30;;;6.30;90.54;93469.19;5050974;28;20060;-55
2022/03/31 05:44:02;;;;;;;86.03;22.35;;;10.50;73.30;;;6.30;90.23;93469.19;5050265;28;20391;-57
2022/03/31 05:46:31;;;;;;;77.65;21.70;;;10.50;73.30;;;6.30;90.29;93471.00;5066421;28;20040;-56
2022/03/31 05:48:57;;;;;;;85.03;21.42;;;10.50;73.30;;;6.30;90.63;93476.31;5050433;28;20112;-54
2022/03/31 05:51:22;;;;;;;76.97;22.38;;;10.50;73.20;;;6.31;90.31;93465.44;5050565;28;20144;-54
2022/03/31 05:53:48;;;;;;;86.65;22.70;;;10.50;73.10;;;6.32;90.34;93466.22;5044984;28;20021;-57
2022/03/31 05:56:18;;;;;;;89.35;22.92;;;10.60;73.20;;;6.34;90.45;93467.53;5063712;28;20033;-54
2022/03/31 05:58:47;;;;;;;79.30;21.83;;;10.60;73.10;;;6.35;90.23;93457.72;5051271;28;20033;-55
2022/03/31 06:01:13;;;;;;;86.68;21.23;;;10.60;73.00;;;6.37;90.26;93459.00;5049951;28;20098;-56
2022/03/31 06:03:48;;;;;;;73.10;21.30;;;10.60;73.00;;;6.40;90.40;93469.00;5049645;28;20029;-55
2022/03/31 06:06:17;;;;;;;70.57;20.88;;;10.70;73.10;;;6.43;90.58;93465.78;5066670;28;20056;-52
2022/03/31 06:08:45;;;;;;;79.93;20.58;;;10.70;73.00;;;6.46;90.42;93470.50;5051006;28;20438;-57
2022/03/31 06:11:11;;;;;;;90.03;22.70;;;10.70;73.00;;;6.48;90.41;93473.63;5049438;28;20063;-55
2022/03/31 06:13:39;;;;;;;69.20;21.10;;;10.80;73.10;;;6.52;90.42;93473.03;5049573;28;20492;-56
2022/03/31 06:16:05;;;;;;;78.93;23.08;;;10.80;73.00;;;6.53;90.40;93470.13;5051093;28;20083;-58
2022/03/31 06:18:31;;;;;;;94.15;26.80;;;10.90;72.90;;;6.39;90.33;93445.47;5057734;23;20049;-57
2022/03/31 06:20:57;;;;;;;82.07;22.75;;;10.90;72.90;;;6.59;90.39;93471.59;5029132;28;20025;-57
2022/03/31 06:23:25;;;;;;;81.10;20.67;;;11.00;72.80;;;6.55;90.45;93465.34;5028955;28;20447;-60
2022/03/31 06:25:52;;;;;;;74.32;20.15;;;11.00;72.70;;;6.58;90.29;93462.09;5010897;28;20503;-60
2022/03/31 06:28:18;;;;;;;71.32;20.15;;;11.10;72.70;;;6.68;90.22;93469.88;5030670;28;20029;-58
2022/03/31 06:30:49;;;;;;;76.03;19.90;;;11.10;72.70;;;6.69;90.36;93452.13;5014851;28;20087;-58
2022/03/31 06:33:18;;;;;;;78.47;19.75;;;11.20;72.70;;;6.74;90.39;93465.28;5034210;28;20025;-57
2022/03/31 06:35:45;;;;;;;64.57;21.35;;;11.20;72.70;;;6.77;90.31;93455.94;5034099;28;20022;-58
2022/03/31 06:38:11;;;;;;;77.60;21.88;;;11.20;72.60;;;6.82;90.24;93455.88;5017414;28;20076;-58
2022/03/31 06:40:39;;;;;;;76.28;22.05;;;11.30;72.70;;;6.83;90.33;93454.78;5035621;28;20484;-58
2022/03/31 06:43:05;;;;;;;68.25;20.90;;;11.30;72.60;;;6.82;90.12;93455.88;5034218;28;20035;-58
2022/03/31 06:45:37;;;;;;;70.47;21.42;;;11.40;72.60;;;6.86;90.18;93455.00;5034195;28;20436;-58
2022/03/31 06:48:09;;;;;;;83.95;22.85;;;11.50;72.70;;;6.90;90.32;93447.25;5034041;28;20112;-59
2022/03/31 06:50:35;;;;;;;77.03;23.80;;;11.40;72.60;;;6.99;90.17;93453.44;5033949;28;20028;-58
2022/03/31 06:53:04;;;;;;;66.13;21.25;;;11.50;72.60;;;7.04;90.18;93450.69;5033620;28;20025;-57
2022/03/31 06:55:35;;;;;;;75.50;23.13;;;11.60;72.70;;;7.09;90.13;93447.94;5035044;28;20025;-58
2022/03/31 06:58:01;;;;;;;60.35;21.10;;;11.60;72.60;;;7.10;89.97;93444.22;5025796;28;20025;-60
2022/03/31 07:00:29;;;;;;;71.72;21.83;;;11.60;72.50;;;7.11;89.98;93445.00;5015285;28;20021;-56
2022/03/31 07:03:03;;;;;;;61.60;20.88;;;11.60;72.50;;;7.16;89.81;93443.03;5032624;28;20037;-58
2022/03/31 07:05:31;;;;;;;67.28;22.52;;;11.70;72.40;;;7.22;89.76;93445.59;5032563;28;20029;-55
2022/03/31 07:07:57;;;;;;;54.28;21.13;;;11.70;72.40;;;7.28;89.84;93444.41;5032239;28;20422;-57
2022/03/31 07:10:23;;;;;;;69.45;21.40;;;11.80;72.40;;;7.31;89.81;93441.19;5030818;28;20148;-58
2022/03/31 07:12:49;;;;;;;62.22;21.67;;;11.90;72.40;;;7.34;89.66;93437.94;5033424;28;20503;-55
2022/03/31 07:15:19;;;;;;;64.25;22.77;;;11.90;72.30;;;7.44;89.52;93439.59;5032161;28;20029;-58
2022/03/31 07:17:48;;;;;;;53.83;20.52;;;12.00;72.20;;;7.48;89.30;93430.75;5013972;28;20392;-58
2022/03/31 07:20:13;;;;;;;59.47;21.80;;;12.10;72.00;;;7.52;89.23;93441.53;5030455;28;20029;-58
2022/03/31 07:22:44;;;;;;;49.97;19.38;;;12.20;71.90;;;7.56;88.92;93438.00;5029700;28;20037;-54
2022/03/31 07:25:10;;;;;;;53.17;19.98;;;12.30;71.70;;;7.55;88.61;93433.00;5013564;28;20370;-52
2022/03/31 07:27:36;;;;;;;49.65;17.98;;;12.40;71.50;;;7.63;88.63;93432.31;5030035;28;20040;-55
2022/03/31 07:30:01;;;;;;;34.22;17.10;;;12.50;71.30;;;7.67;87.76;93438.56;5030889;28;20025;-57
2022/03/31 07:32:27;;;;;;;38.72;16.67;;;12.60;71.10;;;7.75;87.84;93437.09;5031470;28;20043;-56
2022/03/31 07:34:53;;;;;;;48.55;17.40;;;12.70;70.90;;;7.78;87.97;93434.63;5031862;28;20037;-60
2022/03/31 07:37:19;;;;;;;44.00;17.83;;;12.90;70.80;;;7.87;88.13;93429.41;5025563;28;20496;-51
2022/03/31 07:39:47;;;;;;;41.63;17.35;;;13.00;70.90;;;7.94;87.78;93432.41;5023848;28;20037;-52
2022/03/31 07:42:15;;;;;;;49.30;19.38;;;13.10;70.70;;;8.00;87.16;93436.53;5025951;28;20061;-52
2022/03/31 07:44:41;;;;;;;40.13;19.90;;;13.20;70.50;;;8.06;87.28;93426.59;5030869;28;20419;-55
2022/03/31 07:47:08;;;;;;;39.60;19.27;;;13.30;70.40;;;8.17;86.65;93433.22;5021902;28;20044;-56
2022/03/31 07:49:33;;;;;;;37.70;17.42;;;13.40;70.30;;;8.06;85.63;93429.25;5028697;28;20037;-51
2022/03/31 07:51:59;;;;;;;34.28;17.02;;;13.40;70.00;;;8.08;85.24;93429.69;5028027;28;20026;-50
2022/03/31 07:54:25;;;;;;;40.88;19.08;;;13.40;69.70;;;8.18;85.27;93432.13;5032060;28;20036;-54
2022/03/31 07:56:51;;;;;;;39.92;17.83;;;13.40;69.50;;;8.25;85.19;93424.53;5030133;28;20117;-55
2022/03/31 07:59:23;;;;;;;32.03;16.83;;;13.50;69.40;;;8.34;84.70;93425.38;5030740;28;20028;-54
2022/03/31 08:01:50;;;;;;;34.85;17.50;;;13.50;70.10;;;8.47;84.02;93423.78;5029544;28;20022;-56
2022/03/31 08:04:18;;;;;;;28.05;15.80;;;13.80;69.20;;;8.67;83.14;93421.69;5027995;28;20388;-54
2022/03/31 08:06:44;;;;;;;31.95;16.48;;;14.00;69.00;;;8.86;83.53;93424.91;5028609;28;20083;-53
2022/03/31 08:09:13;;;;;;;35.05;16.90;;;14.50;68.80;;;9.42;82.84;93425.25;5028802;28;20431;-57
2022/03/31 08:11:41;;;;;;;21.65;12.73;;;15.40;68.60;;;10.10;76.56;93430.97;5029653;28;20409;-58
2022/03/31 08:14:07;;;;;;;21.80;11.88;;;16.30;68.20;;;10.70;76.14;93421.38;5030038;28;20063;-54
2022/03/31 08:16:32;;;;;;;21.10;11.40;;;17.10;67.30;;;11.29;71.43;93424.94;5028656;28;20026;-56
2022/03/31 08:18:58;;;;;;;21.38;10.52;;;18.10;65.70;;;11.73;69.06;93417.47;5039531;28;20037;-53
2022/03/31 08:21:24;;;;;;;24.77;10.70;;;18.90;64.00;;;11.97;67.40;93424.06;5046128;28;20106;-55
2022/03/31 08:23:49;;;;;;;22.08;11.43;;;19.20;62.50;;;12.11;68.85;93429.94;5034048;28;20040;-54
2022/03/31 08:26:15;;;;;;;22.52;10.80;;;19.30;61.50;;;11.99;65.37;93419.19;5043351;28;20028;-54
2022/03/31 08:28:41;;;;;;;18.73;10.77;;;19.20;60.70;;;11.97;67.03;93416.88;5051350;28;20377;-52
2022/03/31 08:31:07;;;;;;;27.52;11.05;;;18.90;59.80;;;11.68;66.48;93420.31;5047434;28;20100;-50
2022/03/31 08:33:33;;;;;;;24.75;12.05;;;18.80;59.20;;;11.76;68.16;93414.16;5037033;28;20025;-51
2022/03/31 08:35:59;;;;;;;22.60;10.63;;;18.60;58.80;;;11.53;66.83;93411.00;5038028;28;20048;-55
2022/03/31 08:38:24;;;;;;;21.48;10.30;;;18.30;58.60;;;11.57;67.24;93417.25;5038839;28;20046;-58
2022/03/31 08:40:53;;;;;;;20.13;10.00;;;18.00;58.60;;;11.54;67.41;93414.47;5047944;28;20429;-55
2022/03/31 08:43:20;;;;;;;21.95;9.95;;;17.80;58.60;;;11.41;67.44;93416.25;5015134;28;20032;-55
2022/03/31 08:45:55;;;;;;;21.05;10.07;;;17.50;58.60;;;11.26;67.07;93414.13;5046846;28;20040;-53
2022/03/31 08:48:26;;;;;;;23.73;10.63;;;17.40;58.50;;;11.40;67.01;93412.00;5049750;28;20036;-51
2022/03/31 08:50:54;;;;;;;16.60;9.73;;;17.30;58.60;;;11.35;67.38;93407.66;5032430;28;20506;-52
2022/03/31 08:53:20;;;;;;;22.92;9.65;;;17.30;58.50;;;11.45;66.11;93413.72;5048698;28;20047;-53
2022/03/31 08:55:46;;;;;;;25.02;8.98;;;17.30;58.40;;;11.55;66.90;93416.00;5029920;28;20025;-53
2022/03/31 08:58:12;;;;;;;20.88;10.13;;;17.40;58.50;;;11.74;66.25;93418.25;5031687;28;20060;-53
2022/03/31 09:00:38;;;;;;;21.80;9.13;;;17.60;58.50;;;11.88;66.16;93412.72;5033911;28;20039;-53
2022/03/31 09:03:09;;;;;;;20.65;9.68;;;18.00;58.10;;;12.08;64.58;93411.13;5030992;28;20025;-58
2022/03/31 09:05:41;;;;;;;22.23;9.93;;;18.30;57.60;;;12.31;65.01;93408.91;5015590;28;20503;-57
2022/03/31 09:08:10;;;;;;;28.37;10.77;;;18.80;57.10;;;12.59;65.74;93407.22;5031479;28;20095;-55
2022/03/31 09:10:44;;;;;;;22.10;9.50;;;19.10;56.90;;;12.89;63.59;93409.75;5016310;28;20056;-55
2022/03/31 09:13:24;;;;;;;25.13;9.20;;;19.50;56.50;;;12.98;61.41;93401.66;5011947;28;20129;-52
2022/03/31 09:16:11;;;;;;;20.85;8.60;;;19.80;55.30;;;13.08;61.60;93407.34;5032271;28;20664;-53
2022/03/31 09:18:40;;;;;;;25.42;8.05;;;20.00;54.70;;;13.31;58.65;93397.00;5032029;28;20052;-55
2022/03/31 09:21:12;;;;;;;22.50;8.25;;;20.20;54.30;;;13.46;59.40;93410.84;5047691;28;20029;-56
2022/03/31 09:23:46;;;;;;;25.13;7.07;;;20.40;54.70;;;13.39;54.82;93395.34;5031347;28;20415;-50
2022/03/31 09:26:17;;;;;;;21.63;5.95;;;20.60;52.70;;;13.58;55.41;93398.22;5031065;28;20044;-57
2022/03/31 09:28:45;;;;;;;31.90;7.43;;;20.90;52.20;;;13.85;57.09;93401.31;5029381;28;20029;-54
2022/03/31 09:31:12;;;;;;;19.63;8.05;;;21.20;52.20;;;14.04;57.21;93388.13;5026049;28;20040;-51
2022/03/31 09:33:38;;;;;;;18.85;7.07;;;21.50;51.60;;;14.33;54.10;93395.06;5029498;28;20104;-54
2022/03/31 09:36:21;;;;;;;21.63;7.53;;;21.90;51.00;;;14.25;55.88;93389.81;5049545;28;20057;-53
2022/03/31 09:38:58;;;;;;;26.33;7.75;;;22.10;50.20;;;14.44;55.23;93398.00;5050516;28;20021;-55
2022/03/31 09:41:33;;;;;;;27.10;8.00;;;22.30;49.40;;;14.60;55.22;93394.63;5032256;28;20025;-55
2022/03/31 09:44:15;;;;;;;17.65;6.72;;;22.40;49.70;;;15.03;54.13;93393.81;5032583;28;20061;-55
2022/03/31 09:46:43;;;;;;;20.73;7.97;;;22.60;48.80;;;15.20;54.10;93387.38;5031621;28;20491;-55
2022/03/31 09:49:22;;;;;;;23.52;7.78;;;22.80;48.80;;;15.08;54.74;93374.03;5048108;28;20057;-54
2022/03/31 09:51:59;;;;;;;22.42;8.02;;;23.00;48.30;;;15.18;51.89;93386.91;5031176;28;20072;-56
2022/03/31 09:54:29;;;;;;;21.45;7.38;;;23.10;47.60;;;15.24;53.41;93383.63;5012339;28;20064;-53
2022/03/31 09:56:57;;;;;;;21.30;7.30;;;23.20;47.40;;;15.02;53.34;93387.69;5011855;28;20033;-53
2022/03/31 09:59:38;;;;;;;17.15;7.57;;;23.10;46.60;;;15.03;55.15;93378.50;5029963;28;20100;-60
2022/03/31 10:02:04;;;;;;;18.90;7.25;;;23.10;46.70;;;14.70;52.27;93386.09;5049395;28;20025;-55
2022/03/31 10:04:31;;;;;;;26.15;6.82;;;23.10;46.20;;;14.93;53.44;93381.72;5048531;28;20136;-55
2022/03/31 10:06:58;;;;;;;29.63;8.32;;;23.10;45.70;;;14.81;52.56;93376.44;5017685;28;20067;-52
2022/03/31 10:09:24;;;;;;;28.23;8.38;;;23.10;45.10;;;14.89;55.22;93364.00;5034910;28;20025;-53
2022/03/31 10:12:28;;;;;;;23.95;7.70;;;23.20;45.20;;;15.26;51.15;93369.84;5019320;28;20090;-53
2022/03/31 10:15:30;;;;;;;19.85;7.78;;;23.50;44.50;;;15.22;51.12;93351.00;4996594;28;20046;-54
2022/03/31 10:17:57;;;;;;;20.40;8.07;;;23.60;44.00;;;15.47;51.78;93366.91;5034638;28;20028;-54
2022/03/31 10:20:23;;;;;;;22.75;9.50;;;23.70;44.30;;;15.44;52.86;93371.06;5038180;28;20051;-58
2022/03/31 10:25:49;;;;;;;28.75;9.40;;;23.80;42.70;;;15.07;53.59;93365.19;5036511;28;20031;-56